SEGU/GYE METAR and TAF weather

Enter ICAO airport designator
Station Type Date Time Source
SEGU METAR 2018/12/12 07:00 UTC NOAA

SEGU 120700Z VRB01KT 9999 FEW040 24/21 Q1011 NOSIG RMK A2986


Station Type Date Time Source
SEGU Decoded METAR 2018/12/12 07:00 UTC NOAA

Guayaquil / Simon Bolivar, Ecuador (SEGU) 02-09S 079-53W 9M
Dec 12, 2018 - 02:00 AM EST / 2018.12.12 0700 UTC
Wind: Variable at 1 MPH (1 KT):0
Visibility: greater than 7 mile(s):0
Sky conditions: mostly clear
Temperature: 75 F (24 C)
Dew Point: 69 F (21 C)
Relative Humidity: 83%
Pressure (altimeter): 29.85 in. Hg (1011 hPa)
ob: SEGU 120700Z VRB01KT 9999 FEW040 24/21 Q1011 NOSIG RMK A2986
cycle: 7

Station Type Date Time Source
SEGU TAF 2018/12/12 06:03 UTC NOAA

TAF TAF SEGU 120330Z 1206/1306 23010KT CAVOK
BECMG 1212/1213 FEW010 SCT023 BKN090
FM121500 12005KT 9999 SCT030 SCT100
FM122200 21010KT 9999 FEW026 BKN100 TX30/1219Z TN20/1210Z


Example: see airport list